KAVP Detailed METAR

Nearby METAR Reports

 

KAVP - Avoca/Wilkes B., Pennsylvania, USA
Distance from station: SW 13mi, 22km
Updated: Sun, 27-Sep-2020 18:54 EDT
Overcast
Overcast
 Wind from varies
Wind: varies 3 mph , 6 km/h
Temperature: 73°F , 23°C
Dew Point: 63°F , 17°C
Humidity: 69%
Barometer: 29.93 inHg , 1013.5 hPa
Clouds: Overcast
Visibility: 10 miles , 16 km
Cloud details: Overcast 4000 ft
2020/09/27 22:54 KAVP 272254Z VRB03KT 10SM OVC040 23/17 A2993 RMK AO2 SLP127 T02280167
KMPO - Mt. Pocono, Pennsylvania, USA
Distance from station: SSE 26mi, 43km
Updated: Sun, 27-Sep-2020 18:53 EDT
Overcast
Overcast
 Wind from SSE
Wind: SSE 5 mph , 7 km/h
Temperature: 64°F , 18°C
Dew Point: 63°F , 17°C
Humidity: 94%
Barometer: 29.98 inHg , 1015.2 hPa
Clouds: Overcast
Visibility: 10 miles , 16 km
Cloud details: Mostly cloudy 1200 ft
Mostly cloudy 2000 ft
Overcast 2700 ft
2020/09/27 22:53 KMPO 272253Z AUTO 15004KT 10SM BKN012 BKN020 OVC027 18/17 A2998 RMK AO2 SLP145 T01830172 $
 
KMSV - Monticello, New York, USA
Distance from station: ENE 43mi, 69km
Updated: Sun, 27-Sep-2020 19:22 EDT
Overcast
Overcast
 Wind from SSE
Wind: SSE 7 mph , 11 km/h
Temperature: 68°F , 20°C
Dew Point: 64°F , 18°C
Humidity: 88%
Barometer: 29.97 inHg , 1014.9 hPa
Clouds: Overcast
Visibility: 10 miles , 16 km
Cloud details: Partly cloudy 2000 ft
Mostly cloudy 2600 ft
Overcast 3300 ft
2020/09/27 23:22 KMSV 272322Z AUTO 16006KT 10SM SCT020 BKN026 OVC033 20/18 A2997 RMK AO2
KFWN - Sussex, New Jersey, USA
Distance from station: ESE 52mi, 84km
Updated: Sun, 27-Sep-2020 18:53 EDT
Overcast
Overcast
 Wind from calm
Wind: Calm
Temperature: 73°F , 23°C
Dew Point: 66°F , 19°C
Humidity: 78%
Barometer: 29.93 inHg , 1013.5 hPa
Clouds: Overcast
Visibility: 10 miles , 16 km
Cloud details: Overcast 3200 ft
2020/09/27 22:53 KFWN 272253Z AUTO 00000KT 10SM OVC032 23/19 A2993 RMK AO2 SLP131 T02280194 $
 
K12N - Andover, New Jersey, USA
Distance from station: SE 54mi, 87km
Updated: Sun, 27-Sep-2020 18:54 EDT

 Wind from calm
Wind: Calm
Temperature: 72°F , 22°C
Dew Point: 66°F , 19°C
Humidity: 83%
Barometer: 29.93 inHg , 1013.5 hPa
2020/09/27 22:54 K12N 272254Z AUTO 00000KT 22/19 A2993 RMK AO1 SLP130 T02220194
KBGM - Binghamton, New York, USA
Distance from station: NNW 55mi, 88km
Updated: Sun, 27-Sep-2020 18:53 EDT
Clear
Clear
 Wind from S
Wind: S 9 mph , 15 km/h
Temperature: 68°F , 20°C
Dew Point: 61°F , 16°C
Humidity: 78%
Barometer: 29.92 inHg , 1013.2 hPa
Clouds: Clear
Visibility: 10 miles , 16 km
2020/09/27 22:53 KBGM 272253Z AUTO 17008KT 10SM CLR 20/16 A2992 RMK AO2 SLP123 T02000156 $
 
KABE - Allentown, Pennsylvania, USA
Distance from station: S 58mi, 94km
Updated: Sun, 27-Sep-2020 18:51 EDT
Overcast
Overcast
 Wind from SSE
Wind: SSE 3 mph , 6 km/h
Temperature: 73°F , 23°C
Dew Point: 64°F , 18°C
Humidity: 74%
Barometer: 29.92 inHg , 1013.2 hPa
Clouds: Overcast
Visibility: 10 miles , 16 km
Cloud details: Partly cloudy 2800 ft
Overcast 5000 ft
2020/09/27 22:51 KABE 272251Z AUTO 16003KT 10SM SCT028 OVC050 23/18 A2992 RMK AO2 SLP129 T02330183
KXLL - Allentown Queen, Pennsylvania, USA
Distance from station: S 64mi, 103km
Updated: Sun, 27-Sep-2020 19:15 EDT
Overcast
Overcast
 Wind from calm
Wind: Calm
Temperature: 72°F , 22°C
Dew Point: 66°F , 19°C
Humidity: 83%
Barometer: 29.91 inHg , 1012.9 hPa
Clouds: Overcast
Visibility: 10 miles , 16 km
Cloud details: Overcast 5500 ft
2020/09/27 23:15 KXLL 272315Z AUTO 00000KT 10SM OVC055 22/19 A2991 RMK AO2
 
KMGJ - Montgomery, New York, USA
Distance from station: E 67mi, 108km
Updated: Sun, 27-Sep-2020 18:54 EDT
Overcast
Overcast
 Wind from SSE
Wind: SSE 6 mph , 9 km/h
Temperature: 73°F , 23°C
Dew Point: 64°F , 18°C
Humidity: 74%
Barometer: 29.92 inHg , 1013.2 hPa
Clouds: Overcast
Visibility: 10 miles , 16 km
Cloud details: Few Clouds 3400 ft
Overcast 4100 ft
2020/09/27 22:54 KMGJ 272254Z AUTO 15005KT 10SM FEW034 OVC041 23/18 A2992 RMK AO2 SLP130 T02280178
KIPT - Williamsport, Pennsylvania, USA
Distance from station: WSW 72mi, 116km
Updated: Sun, 27-Sep-2020 18:54 EDT
Clear
Clear
 Wind from varies
Wind: varies 5 mph , 7 km/h
Temperature: 73°F , 23°C
Dew Point: 63°F , 17°C
Humidity: 69%
Barometer: 29.88 inHg , 1011.9 hPa
Clouds: Clear
Visibility: 10 miles , 16 km
2020/09/27 22:54 KIPT 272254Z VRB04KT 10SM CLR 23/17 A2988 RMK AO2 SLP114 T02280167 $
 
KUKT - Quakertown Arp, Pennsylvania, USA
Distance from station: S 74mi, 119km
Updated: Sun, 27-Sep-2020 19:15 EDT
Mostly cloudy
Mostly cloudy
 Wind from calm
Wind: Calm
Temperature: 72°F , 22°C
Dew Point: 70°F , 21°C
Humidity: 94%
Barometer: 29.91 inHg , 1012.9 hPa
Clouds: Mostly cloudy
Visibility: 10 miles , 16 km
Cloud details: Mostly cloudy 5500 ft
2020/09/27 23:15 KUKT 272315Z AUTO 00000KT 10SM BKN055 22/21 A2991 RMK A01
KSMQ - Somerville, New Jersey, USA
Distance from station: SE 76mi, 123km
Updated: Sun, 27-Sep-2020 18:53 EDT
Overcast
Overcast
 Wind from calm
Wind: Calm
Temperature: 73°F , 23°C
Dew Point: 66°F , 19°C
Humidity: 78%
Barometer: 29.91 inHg , 1012.9 hPa
Clouds: Overcast
Visibility: 10 miles , 16 km
Cloud details: Overcast 5500 ft
2020/09/27 22:53 KSMQ 272253Z AUTO 00000KT 10SM OVC055 23/19 A2991 RMK AO2 SLP126 T02330189
 
KSWF - Newburgh/Stewart, New York, USA
Distance from station: E 77mi, 123km
Updated: Sun, 27-Sep-2020 18:45 EDT
Overcast
Overcast
 Wind from varies
Wind: varies 5 mph , 7 km/h
Temperature: 75°F , 24°C
Dew Point: 66°F , 19°C
Humidity: 74%
Barometer: 29.94 inHg , 1013.9 hPa
Clouds: Overcast
Visibility: 10 miles , 16 km
Cloud details: Overcast 4000 ft
2020/09/27 22:45 KSWF 272245Z VRB04KT 10SM OVC040 24/19 A2994
KMMU - Morristown Muni, New Jersey, USA
Distance from station: SE 77mi, 124km
Updated: Sun, 27-Sep-2020 18:45 EDT
Overcast
Overcast
 Wind from SSE
Wind: SSE 7 mph , 11 km/h
Temperature: 75°F , 24°C
Dew Point: 70°F , 21°C
Humidity: 83%
Barometer: 29.93 inHg , 1013.5 hPa
Clouds: Overcast
Visibility: 10 miles , 16 km
Cloud details: Overcast 4600 ft
2020/09/27 22:45 KMMU 272245Z 15006KT 10SM OVC046 24/21 A2993
 
KCDW - Caldwell, New Jersey, USA
Distance from station: ESE 79mi, 127km
Updated: Sun, 27-Sep-2020 18:53 EDT
Overcast
Overcast
 Wind from SSE
Wind: SSE 9 mph , 15 km/h
Temperature: 77°F , 25°C
Dew Point: 66°F , 19°C
Humidity: 69%
Barometer: 29.93 inHg , 1013.5 hPa
Clouds: Overcast
Visibility: 10 miles , 16 km
Cloud details: Overcast 4300 ft
2020/09/27 22:53 KCDW 272253Z 16008KT 10SM OVC043 25/19 A2993 RMK AO2 SLP138 T02500194
KRDG - Reading, Pennsylvania, USA
Distance from station: SSW 80mi, 130km
Updated: Sun, 27-Sep-2020 18:54 EDT
Overcast
Overcast
 Wind from SSE
Wind: SSE 3 mph , 6 km/h
Temperature: 73°F , 23°C
Dew Point: 68°F , 20°C
Humidity: 83%
Barometer: 29.90 inHg , 1012.5 hPa
Clouds: Overcast
Visibility: 10 miles , 16 km
Cloud details: Few Clouds 2100 ft
Mostly cloudy 2600 ft
Overcast 3300 ft
2020/09/27 22:54 KRDG 272254Z 15003KT 10SM FEW021 BKN026 OVC033 23/20 A2990 RMK AO2 SLP127 T02280200
 
KITH - Ithaca/Tompkins, New York, USA
Distance from station: NW 81mi, 131km
Updated: Sun, 27-Sep-2020 18:56 EDT
Clear
Clear
 Wind from SSE
Wind: SSE 13 mph , 20 km/h, Gust: 21 mph , 33 km/h
Temperature: 72°F , 22°C
Dew Point: 59°F , 15°C
Humidity: 65%
Barometer: 29.88 inHg , 1011.9 hPa
Clouds: Clear
Visibility: 10 miles , 16 km
2020/09/27 22:56 KITH 272256Z 16011G18KT 10SM CLR 22/15 A2988 RMK AO2 SLP113 T02220150
KSEG - Selinsgrove, Pennsylvania, USA
Distance from station: SW 82mi, 132km
Updated: Sun, 27-Sep-2020 18:53 EDT
Overcast
Overcast
 Wind from S
Wind: S 3 mph , 6 km/h
Temperature: 72°F , 22°C
Dew Point: 64°F , 18°C
Humidity: 78%
Barometer: 29.90 inHg , 1012.5 hPa
Clouds: Overcast
Visibility: 10 miles , 16 km
Cloud details: Overcast 4700 ft
2020/09/27 22:53 KSEG 272253Z AUTO 17003KT 10SM OVC047 22/18 A2990 RMK AO2 SLP123 T02220178
 
KELM - Elmira, New York, USA
Distance from station: WNW 82mi, 133km
Updated: Sun, 27-Sep-2020 18:53 EDT
Clear
Clear
 Wind from S
Wind: S 12 mph , 19 km/h
Temperature: 75°F , 24°C
Dew Point: 61°F , 16°C
Humidity: 61%
Barometer: 29.86 inHg , 1011.2 hPa
Clouds: Clear
Visibility: 10 miles , 16 km
2020/09/27 22:53 KELM 272253Z 18010KT 10SM CLR 24/16 A2986 RMK AO2 SLP106 T02440156
KDYL - Doylestown, Pennsylvania, USA
Distance from station: SSE 83mi, 134km
Updated: Sun, 27-Sep-2020 18:54 EDT
Overcast
Overcast
 Wind from calm
Wind: Calm
Temperature: 73°F , 23°C
Dew Point: 66°F , 19°C
Humidity: 78%
Barometer: 29.91 inHg , 1012.9 hPa
Clouds: Overcast
Visibility: 10 miles , 16 km
Cloud details: Few Clouds 3000 ft
Overcast 4100 ft
2020/09/27 22:54 KDYL 272254Z AUTO 00000KT 10SM FEW030 OVC041 23/19 A2991 RMK AO2 SLP124 T02330194